Time;durP1;ratioP1;P1;durP2;ratioP2;P2;SDS_P1;SDS_P2;PMS_P1;PMS_P2;Temp;Humidity;BMP_temperature;BMP_pressure;BME280_temperature;BME280_humidity;BME280_pressure;Samples;Min_cycle;Max_cycle;Signal;HPM_P1;HPM_P2
2021/06/19 00:00:16;;;;;;;4.83;4.42;;;;;;;18.71;82.02;97707.37;1697513;84;20985;-78
2021/06/19 00:02:45;;;;;;;5.45;4.95;;;;;;;18.68;81.70;97716.48;1697476;84;21060;-79
2021/06/19 00:05:13;;;;;;;6.17;4.30;;;;;;;18.65;81.76;97711.81;1697731;84;21028;-78
2021/06/19 00:07:40;;;;;;;13.93;5.85;;;;;;;18.62;82.07;97712.88;1697597;84;21004;-79
2021/06/19 00:10:09;;;;;;;9.15;4.62;;;;;;;18.60;82.03;97710.30;1697595;84;21024;-79
2021/06/19 00:12:37;;;;;;;5.03;4.22;;;;;;;18.56;81.97;97712.80;1696330;84;21001;-79
2021/06/19 00:15:10;;;;;;;6.37;4.20;;;;;;;18.52;82.86;97701.05;1677072;84;21004;-79
2021/06/19 00:17:38;;;;;;;7.37;4.15;;;;;;;18.48;81.66;97707.11;1697710;84;21052;-80
2021/06/19 00:20:16;;;;;;;5.55;4.53;;;;;;;18.45;81.66;97704.15;1697434;84;21020;-80
2021/06/19 00:22:43;;;;;;;8.75;4.50;;;;;;;18.44;81.68;97705.59;1693582;84;21008;-80
2021/06/19 00:25:12;;;;;;;8.30;4.25;;;;;;;18.41;81.36;97709.80;1684604;84;20972;-79
2021/06/19 00:27:40;;;;;;;6.50;4.03;;;;;;;18.39;81.62;97713.92;1681874;84;21414;-79
2021/06/19 00:30:10;;;;;;;9.05;4.80;;;;;;;18.37;81.75;97710.50;1669399;86;21503;-79
2021/06/19 00:32:37;;;;;;;5.90;4.22;;;;;;;18.35;81.83;97711.06;1702431;84;21465;-79
2021/06/19 00:35:06;;;;;;;6.60;4.78;;;;;;;18.27;81.70;97715.59;1709965;84;21011;-79
2021/06/19 00:37:34;;;;;;;6.25;4.72;;;;;;;18.24;81.72;97713.13;1710122;84;20976;-79
2021/06/19 00:40:05;;;;;;;6.95;4.58;;;;;;;18.24;82.96;97711.80;1709993;84;20996;-78
2021/06/19 00:42:32;;;;;;;5.42;4.50;;;;;;;18.22;82.03;97712.36;1690085;84;21691;-79
2021/06/19 00:44:59;;;;;;;5.08;4.65;;;;;;;18.20;83.58;97710.27;1674757;85;21068;-79
2021/06/19 00:47:26;;;;;;;6.40;4.40;;;;;;;18.14;83.25;97703.47;1656637;85;21084;-79
2021/06/19 00:49:54;;;;;;;6.42;4.28;;;;;;;18.13;82.83;97712.95;1658417;85;21036;-79
2021/06/19 00:52:21;;;;;;;6.00;4.45;;;;;;;18.12;83.10;97706.75;1682049;85;21040;-79
2021/06/19 00:54:48;;;;;;;6.15;4.22;;;;;;;18.11;82.78;97702.82;1682219;85;21018;-79
2021/06/19 00:57:15;;;;;;;4.67;3.50;;;;;;;18.06;83.27;97704.45;1680986;85;21025;-79
2021/06/19 00:59:43;;;;;;;4.08;3.67;;;;;;;18.04;82.62;97698.30;1669042;85;21023;-79
2021/06/19 01:02:10;;;;;;;8.05;4.00;;;;;;;18.02;83.12;97699.73;1668946;85;20975;-78
2021/06/19 01:04:36;;;;;;;6.22;3.98;;;;;;;17.97;83.15;97692.97;1669102;85;21070;-78
2021/06/19 01:07:05;;;;;;;5.80;4.15;;;;;;;17.92;83.12;97694.59;1669096;86;20978;-78
2021/06/19 01:09:31;;;;;;;10.48;3.80;;;;;;;17.90;83.23;97697.87;1668937;85;21105;-78
2021/06/19 01:11:58;;;;;;;4.35;3.95;;;;;;;17.88;83.50;97705.13;1669115;86;21010;-77
2021/06/19 01:14:26;;;;;;;5.08;3.95;;;;;;;17.83;83.90;97698.73;1668733;86;21177;-78
2021/06/19 01:16:52;;;;;;;7.65;3.47;;;;;;;17.79;83.96;97714.16;1668020;85;21027;-77
2021/06/19 01:19:19;;;;;;;5.87;3.87;;;;;;;17.78;83.94;97704.38;1677693;85;21091;-77
2021/06/19 01:21:45;;;;;;;3.90;3.50;;;;;;;17.78;83.93;97704.38;1682742;85;21426;-77
2021/06/19 01:24:14;;;;;;;7.10;4.28;;;;;;;17.78;84.20;97704.38;1661019;85;20997;-77
2021/06/19 01:26:43;;;;;;;5.37;3.80;;;;;;;17.72;84.01;97700.75;1682771;85;21016;-77
2021/06/19 01:29:10;;;;;;;5.35;4.20;;;;;;;17.66;84.05;97700.66;1670527;85;21014;-77
2021/06/19 01:31:39;;;;;;;6.60;4.45;;;;;;;17.64;84.23;97707.07;1678332;85;21029;-77
2021/06/19 01:34:06;;;;;;;7.10;4.50;;;;;;;17.62;84.10;97709.88;1682746;85;21075;-77
2021/06/19 01:36:34;;;;;;;5.67;4.00;;;;;;;17.57;83.87;97707.09;1671751;85;21029;-78
2021/06/19 01:39:01;;;;;;;6.33;4.87;;;;;;;17.52;84.65;97706.05;1663632;85;21059;-77
2021/06/19 01:41:32;;;;;;;7.00;4.22;;;;;;;17.44;85.97;97705.16;1664576;85;21061;-77
2021/06/19 01:44:07;;;;;;;6.72;4.58;;;;;;;17.36;84.50;97704.80;1678605;84;21044;-77
2021/06/19 01:46:38;;;;;;;7.35;4.53;;;;;;;17.32;84.10;97702.80;1669703;84;21517;-77
2021/06/19 01:49:05;;;;;;;6.10;5.08;;;;;;;17.27;83.82;97706.22;1669697;86;21051;-78
2021/06/19 01:51:32;;;;;;;8.33;5.17;;;;;;;17.21;83.80;97707.47;1669628;86;21072;-79
2021/06/19 01:53:58;;;;;;;5.25;4.70;;;;;;;17.10;83.73;97704.57;1692813;84;20957;-79
2021/06/19 01:56:25;;;;;;;7.42;4.78;;;;;;;17.03;84.00;97701.41;1697663;84;21048;-78
2021/06/19 01:58:53;;;;;;;6.47;5.10;;;;;;;16.95;83.92;97703.21;1697505;84;21001;-79
2021/06/19 02:01:20;;;;;;;6.58;4.97;;;;;;;16.89;84.34;97707.11;1697659;84;20976;-79
2021/06/19 02:03:48;;;;;;;7.00;5.30;;;;;;;16.85;84.04;97699.34;1686306;84;21059;-78
2021/06/19 02:06:15;;;;;;;6.83;5.67;;;;;;;16.79;84.09;97713.97;1692273;84;21079;-78
2021/06/19 02:08:45;;;;;;;6.33;5.05;;;;;;;16.72;84.25;97696.08;1669602;86;21477;-78
2021/06/19 02:11:12;;;;;;;8.45;5.55;;;;;;;16.67;84.32;97702.64;1674173;84;21032;-78
2021/06/19 02:13:38;;;;;;;6.92;5.10;;;;;;;16.57;84.30;97699.17;1690559;84;21418;-78
2021/06/19 02:16:05;;;;;;;6.33;5.72;;;;;;;16.50;84.50;97697.33;1675856;84;21043;-77
2021/06/19 02:18:32;;;;;;;6.90;5.12;;;;;;;16.46;84.51;97697.15;1676441;84;21076;-78
2021/06/19 02:20:58;;;;;;;8.90;5.30;;;;;;;16.44;84.91;97692.84;1686645;84;20988;-78
2021/06/19 02:23:26;;;;;;;7.00;4.92;;;;;;;16.40;85.21;97686.78;1705989;84;21063;-78
2021/06/19 02:25:53;;;;;;;10.98;5.20;;;;;;;16.38;86.01;97694.05;1712765;84;20979;-77
2021/06/19 02:28:24;;;;;;;7.33;4.85;;;;;;;16.38;85.63;97698.06;1712703;84;20975;-77
2021/06/19 02:30:55;;;;;;;7.25;5.05;;;;;;;16.37;86.02;97689.66;1712758;83;21006;-77
2021/06/19 02:33:22;;;;;;;9.45;5.35;;;;;;;16.33;86.27;97692.96;1712656;84;21441;-77
2021/06/19 02:35:49;;;;;;;6.97;4.28;;;;;;;16.34;86.39;97688.48;1691658;83;20994;-77
2021/06/19 02:38:17;;;;;;;12.75;5.70;;;;;;;16.32;86.26;97691.25;1677133;84;21111;-77
2021/06/19 02:40:46;;;;;;;5.65;3.65;;;;;;;16.34;86.44;97690.70;1679779;84;21008;-78
2021/06/19 02:43:15;;;;;;;8.23;4.33;;;;;;;16.36;87.30;97699.48;1675850;84;21147;-78
2021/06/19 02:45:42;;;;;;;4.90;4.00;;;;;;;16.40;87.25;97708.18;1682726;85;21061;-78
2021/06/19 02:48:09;;;;;;;7.33;3.85;;;;;;;16.39;87.56;97706.47;1682665;85;21148;-78
2021/06/19 02:50:40;;;;;;;5.80;4.00;;;;;;;16.40;87.74;97712.69;1669708;85;21032;-77
2021/06/19 02:53:08;;;;;;;8.65;3.90;;;;;;;16.43;87.20;97708.48;1670685;85;21001;-77
2021/06/19 02:55:38;;;;;;;7.55;4.00;;;;;;;16.47;86.90;97702.88;1682673;85;21479;-77
2021/06/19 02:58:07;;;;;;;5.50;3.98;;;;;;;16.49;86.83;97700.12;1682822;85;21005;-77
2021/06/19 03:00:33;;;;;;;6.62;3.80;;;;;;;16.46;87.14;97700.28;1671774;85;21025;-77
2021/06/19 03:03:01;;;;;;;9.28;4.50;;;;;;;16.47;86.74;97700.20;1681531;85;21400;-78
2021/06/19 03:05:30;;;;;;;5.12;4.08;;;;;;;16.42;87.07;97694.27;1673012;85;21037;-79
2021/06/19 03:07:57;;;;;;;4.92;3.95;;;;;;;16.43;87.34;97699.98;1655151;87;21446;-79
2021/06/19 03:10:31;;;;;;;5.92;4.80;;;;;;;16.38;87.09;97694.52;1655308;87;21077;-78
2021/06/19 03:12:59;;;;;;;9.03;4.50;;;;;;;16.38;86.99;97700.73;1655300;87;21047;-79
2021/06/19 03:15:26;;;;;;;9.75;5.17;;;;;;;16.39;87.17;97701.61;1654997;86;21057;-78
2021/06/19 03:17:53;;;;;;;5.60;4.90;;;;;;;16.37;86.89;97699.02;1634216;87;21049;-78
2021/06/19 03:20:20;;;;;;;7.97;4.97;;;;;;;16.36;86.98;97696.81;1655179;87;21009;-79
2021/06/19 03:22:54;;;;;;;7.15;5.72;;;;;;;16.36;86.75;97696.81;1666434;85;21009;-78
2021/06/19 03:25:25;;;;;;;7.67;6.12;;;;;;;16.35;86.75;97698.23;1676751;85;21016;-77
2021/06/19 03:27:52;;;;;;;17.27;5.97;;;;;;;16.33;87.38;97696.97;1673051;85;21518;-77
2021/06/19 03:30:21;;;;;;;6.95;6.10;;;;;;;16.30;88.56;97699.84;1657599;85;21036;-78
2021/06/19 03:32:48;;;;;;;8.65;6.10;;;;;;;16.26;88.58;97697.42;1655101;86;21013;-78
2021/06/19 03:35:16;;;;;;;10.70;6.20;;;;;;;16.21;88.70;97695.91;1655052;86;21093;-78
2021/06/19 03:37:45;;;;;;;8.20;5.95;;;;;;;16.19;87.91;97691.09;1655045;87;20993;-77
2021/06/19 03:40:14;;;;;;;8.80;5.90;;;;;;;16.19;88.77;97689.77;1657988;85;21053;-78
2021/06/19 03:42:42;;;;;;;7.08;5.85;;;;;;;16.21;88.60;97682.53;1669058;85;21049;-78
2021/06/19 03:45:11;;;;;;;9.70;5.95;;;;;;;16.23;87.96;97683.29;1691358;84;21093;-78
2021/06/19 03:47:39;;;;;;;6.12;5.58;;;;;;;16.24;88.22;97674.81;1730880;83;20993;-78
2021/06/19 03:50:13;;;;;;;12.37;6.25;;;;;;;16.23;87.97;97683.29;1726615;82;21541;-78
2021/06/19 03:52:40;;;;;;;8.23;5.75;;;;;;;16.25;88.29;97688.55;1683453;84;20994;-78
2021/06/19 03:55:09;;;;;;;8.23;6.35;;;;;;;16.25;88.07;97686.34;1670514;86;20991;-79
2021/06/19 03:57:36;;;;;;;10.63;6.10;;;;;;;16.25;89.77;97687.22;1670283;86;21071;-79
2021/06/19 04:00:09;;;;;;;10.93;6.62;;;;;;;16.28;88.24;97679.00;1670440;85;20995;-81
2021/06/19 04:02:44;;;;;;;12.45;6.62;;;;;;;16.32;88.63;97683.72;1698376;84;21012;-81
2021/06/19 04:05:13;;;;;;;9.20;5.72;;;;;;;16.39;88.56;97681.55;1692852;85;21060;-81
2021/06/19 04:07:40;;;;;;;10.00;6.15;;;;;;;16.43;88.23;97678.59;1675472;85;21076;-81
2021/06/19 04:10:09;;;;;;;8.38;6.45;;;;;;;16.49;88.80;97676.88;1693154;85;21430;-81
2021/06/19 04:12:37;;;;;;;8.95;6.17;;;;;;;16.56;88.69;97678.73;1692874;85;21064;-79
2021/06/19 04:15:06;;;;;;;11.05;5.97;;;;;;;16.62;90.19;97676.17;1727389;83;20984;-79
2021/06/19 04:17:33;;;;;;;8.55;6.20;;;;;;;16.67;89.02;97678.09;1718731;83;20984;-78
2021/06/19 04:20:00;;;;;;;11.05;6.67;;;;;;;16.76;88.75;97675.34;1713648;82;21071;-79
2021/06/19 04:22:26;;;;;;;9.03;6.28;;;;;;;16.85;88.53;97672.57;1709197;83;20926;-78
2021/06/19 04:24:53;;;;;;;8.48;6.35;;;;;;;16.90;88.87;97670.48;1730837;82;21003;-78
2021/06/19 04:27:21;;;;;;;8.80;6.20;;;;;;;16.97;88.53;97672.30;1696414;84;21005;-78
2021/06/19 04:29:49;;;;;;;11.20;6.05;;;;;;;17.02;88.92;97675.56;1712555;82;21421;-78
2021/06/19 04:32:18;;;;;;;9.98;5.80;;;;;;;17.08;88.32;97679.72;1723077;83;21509;-79
2021/06/19 04:34:44;;;;;;;10.53;5.80;;;;;;;17.13;88.23;97681.17;1742921;82;21000;-78
2021/06/19 04:37:14;;;;;;;8.10;6.05;;;;;;;17.20;88.12;97691.03;1695098;85;21056;-78
2021/06/19 04:42:26;;;;;;;8.38;6.47;;;;;;;17.35;87.65;97682.50;1640406;87;21521;-78
2021/06/19 04:47:24;;;;;;;8.23;6.28;;;;;;;17.48;87.30;97687.95;1722493;83;21116;-78
2021/06/19 04:49:51;;;;;;;7.65;6.80;;;;;;;17.54;86.97;97680.02;1722928;83;21513;-79
2021/06/19 04:52:17;;;;;;;8.93;6.47;;;;;;;17.61;86.87;97683.17;1714395;83;20969;-79
2021/06/19 04:54:44;;;;;;;7.85;6.05;;;;;;;17.65;86.33;97675.32;1722657;83;20962;-79
2021/06/19 04:57:11;;;;;;;9.98;6.05;;;;;;;17.69;86.11;97676.85;1723035;83;21035;-79
2021/06/19 04:59:37;;;;;;;7.70;6.28;;;;;;;17.68;86.28;97663.92;1722816;83;21392;-79
2021/06/19 05:02:04;;;;;;;8.63;5.85;;;;;;;17.70;86.27;97654.91;1722330;83;20981;-79
2021/06/19 05:04:31;;;;;;;7.72;5.90;;;;;;;17.70;86.31;97641.05;1720254;83;22335;-79
2021/06/19 05:06:57;;;;;;;5.83;5.33;;;;;;;17.72;86.14;97651.17;1705275;83;21005;-80
2021/06/19 05:09:26;;;;;;;7.00;5.85;;;;;;;17.79;85.98;97661.02;1711904;83;21029;-80
2021/06/19 05:11:52;;;;;;;9.65;6.28;;;;;;;17.84;85.66;97669.63;1694018;84;21089;-79
2021/06/19 05:14:19;;;;;;;11.48;6.05;;;;;;;17.89;85.56;97670.19;1694029;84;21105;-78
2021/06/19 05:16:45;;;;;;;7.70;6.35;;;;;;;17.94;85.60;97673.42;1694038;84;21035;-79
2021/06/19 05:19:12;;;;;;;8.63;6.22;;;;;;;17.99;85.78;97673.61;1694167;85;21565;-79
2021/06/19 05:21:40;;;;;;;6.58;5.97;;;;;;;18.04;86.49;97671.02;1695403;83;20989;-79
2021/06/19 05:24:08;;;;;;;9.53;6.37;;;;;;;18.11;86.04;97676.00;1722963;83;21072;-79
2021/06/19 05:26:35;;;;;;;7.45;6.10;;;;;;;18.16;85.71;97672.54;1723133;83;20965;-79
2021/06/19 05:29:02;;;;;;;8.53;6.20;;;;;;;18.20;85.22;97680.27;1722911;83;21561;-79
2021/06/19 05:31:29;;;;;;;9.08;6.65;;;;;;;18.25;85.46;97682.66;1712794;83;21013;-79
2021/06/19 05:33:56;;;;;;;8.28;6.12;;;;;;;18.26;84.84;97685.72;1693890;85;21072;-79
2021/06/19 05:36:22;;;;;;;7.53;6.70;;;;;;;18.29;84.86;97679.28;1694142;85;21037;-78
2021/06/19 05:38:50;;;;;;;9.13;6.45;;;;;;;18.34;84.53;97687.42;1694151;85;21013;-78
2021/06/19 05:41:16;;;;;;;9.05;6.20;;;;;;;18.38;84.46;97681.36;1694204;84;21457;-78
2021/06/19 05:43:43;;;;;;;9.55;5.80;;;;;;;18.47;84.48;97685.23;1694053;84;21013;-80
2021/06/19 05:46:10;;;;;;;6.47;5.25;;;;;;;18.53;84.05;97698.27;1694211;85;21012;-80
2021/06/19 05:48:37;;;;;;;8.13;5.35;;;;;;;18.59;83.92;97696.97;1689410;85;21012;-80
2021/06/19 05:51:04;;;;;;;6.70;5.33;;;;;;;18.65;83.58;97698.39;1689421;85;21085;-80
2021/06/19 05:53:31;;;;;;;7.03;5.50;;;;;;;18.73;83.44;97701.43;1716272;83;21495;-81
2021/06/19 05:55:57;;;;;;;6.37;5.10;;;;;;;18.83;83.23;97701.64;1686088;84;21100;-80
2021/06/19 05:58:24;;;;;;;7.70;4.90;;;;;;;18.90;81.47;97694.03;1685195;84;20969;-80
2021/06/19 06:00:50;;;;;;;6.35;5.30;;;;;;;19.02;81.30;97688.30;1669727;86;21286;-80
2021/06/19 06:03:17;;;;;;;4.65;3.60;;;;;;;19.14;80.41;97690.16;1675702;84;21413;-81
2021/06/19 06:05:43;;;;;;;3.85;3.42;;;;;;;19.22;77.26;97690.98;1685420;84;21005;-80
2021/06/19 06:08:10;;;;;;;5.30;3.40;;;;;;;19.34;78.26;97688.77;1697657;84;21060;-80
2021/06/19 06:10:37;;;;;;;4.00;3.42;;;;;;;19.46;77.61;97687.03;1697549;84;21455;-80
2021/06/19 06:13:05;;;;;;;4.75;3.40;;;;;;;19.60;77.43;97691.41;1697601;84;20998;-80
2021/06/19 06:15:32;;;;;;;4.92;3.77;;;;;;;19.73;78.00;97690.55;1697537;84;21013;-81
2021/06/19 06:17:58;;;;;;;4.78;3.10;;;;;;;19.85;77.84;97686.11;1697572;84;20981;-80
2021/06/19 06:20:25;;;;;;;3.58;3.27;;;;;;;19.97;76.81;97685.23;1697663;84;21417;-80
2021/06/19 06:22:52;;;;;;;4.80;3.67;;;;;;;20.09;75.46;97687.50;1700079;84;21006;-80
2021/06/19 06:25:19;;;;;;;5.00;3.47;;;;;;;20.18;73.49;97684.14;1697419;84;21004;-80
2021/06/19 06:27:45;;;;;;;4.25;3.55;;;;;;;20.29;74.72;97686.52;1693431;84;21056;-81
2021/06/19 06:30:13;;;;;;;5.47;3.35;;;;;;;20.37;74.07;97674.70;1687499;84;21079;-80
2021/06/19 06:32:40;;;;;;;6.03;3.58;;;;;;;20.45;73.48;97670.08;1676359;84;21496;-80
2021/06/19 06:35:09;;;;;;;5.67;3.80;;;;;;;20.52;72.45;97672.66;1670282;84;20976;-80
2021/06/19 06:37:39;;;;;;;3.67;3.33;;;;;;;20.60;70.02;97675.27;1693074;85;21014;-80
2021/06/19 06:40:10;;;;;;;4.22;3.83;;;;;;;20.66;69.08;97677.48;1693161;85;21479;-80
2021/06/19 06:42:40;;;;;;;3.33;3.02;;;;;;;20.72;70.11;97671.66;1693198;85;21038;-80
2021/06/19 06:45:11;;;;;;;3.55;3.22;;;;;;;20.82;69.99;97671.31;1692908;84;21026;-80
2021/06/19 06:47:41;;;;;;;4.85;3.55;;;;;;;20.89;69.73;97666.31;1697780;84;21449;-80
2021/06/19 06:50:10;;;;;;;13.48;10.82;;;;;;;20.96;69.81;97670.74;1697612;84;21032;-81
2021/06/19 06:52:37;;;;;;;5.47;3.77;;;;;;;21.03;68.49;97677.86;1701168;84;21470;-81
2021/06/19 06:55:07;;;;;;;6.08;3.85;;;;;;;21.08;67.96;97679.23;1685033;84;21068;-81
2021/06/19 06:57:34;;;;;;;3.17;2.87;;;;;;;21.16;68.24;97679.11;1688085;84;21453;-80
2021/06/19 07:00:01;;;;;;;5.03;2.83;;;;;;;21.22;67.50;97685.39;1695292;84;21073;-80
2021/06/19 07:02:29;;;;;;;3.08;2.77;;;;;;;21.31;63.31;97686.48;1690230;84;21044;-81
2021/06/19 07:04:55;;;;;;;3.35;2.90;;;;;;;21.40;62.10;97688.94;1688164;84;21552;-80
2021/06/19 07:07:22;;;;;;;3.42;2.92;;;;;;;21.47;64.68;97690.18;1681844;84;21152;-80
2021/06/19 07:09:49;;;;;;;7.28;3.02;;;;;;;21.55;64.00;97689.06;1691171;84;21344;-81
2021/06/19 07:12:15;;;;;;;3.25;2.98;;;;;;;21.66;64.00;97693.59;1683929;84;21031;-77
2021/06/19 07:14:42;;;;;;;5.40;3.00;;;;;;;21.82;63.30;97688.34;1684142;84;21470;-81
2021/06/19 07:17:10;;;;;;;3.17;2.80;;;;;;;21.95;63.19;97694.47;1669383;84;21057;-76
2021/06/19 07:19:39;;;;;;;4.67;3.15;;;;;;;22.08;63.75;97696.17;1695742;84;21450;-82
2021/06/19 07:22:08;;;;;;;3.58;3.27;;;;;;;22.21;61.53;97696.02;1695486;84;21040;-83
2021/06/19 07:24:36;;;;;;;3.62;3.10;;;;;;;22.34;62.01;97695.86;1691572;84;21024;-81
2021/06/19 07:27:04;;;;;;;4.70;2.98;;;;;;;22.47;61.32;97695.20;1691994;84;21052;-82
2021/06/19 07:29:31;;;;;;;3.67;3.27;;;;;;;22.59;60.67;97697.38;1684267;84;21037;-80
2021/06/19 07:31:58;;;;;;;3.33;3.02;;;;;;;22.71;61.00;97706.28;1690709;84;21032;-81
2021/06/19 07:34:27;;;;;;;4.12;3.72;;;;;;;22.90;61.43;97708.78;1667251;86;21084;-84
2021/06/19 07:36:54;;;;;;;4.00;3.58;;;;;;;23.10;61.04;97703.03;1667375;86;21028;-84
2021/06/19 07:39:21;;;;;;;4.72;3.72;;;;;;;23.26;60.66;97701.70;1669309;86;21696;-82
2021/06/19 07:41:47;;;;;;;6.12;3.52;;;;;;;23.37;59.14;97700.80;1669138;86;21530;-81
2021/06/19 07:44:14;;;;;;;7.37;4.67;;;;;;;23.45;58.47;97697.78;1669375;86;21033;-81
2021/06/19 07:46:42;;;;;;;3.80;3.42;;;;;;;23.52;57.97;97692.69;1655177;87;21064;-82
2021/06/19 07:49:08;;;;;;;3.98;3.58;;;;;;;23.59;58.31;97690.30;1654250;86;21075;-82
2021/06/19 07:51:35;;;;;;;5.35;3.25;;;;;;;23.65;58.42;97687.53;1664279;85;21010;-82
2021/06/19 07:54:02;;;;;;;4.03;3.50;;;;;;;23.69;58.01;97688.98;1681019;85;21018;-82
2021/06/19 07:56:28;;;;;;;5.05;3.80;;;;;;;23.75;57.12;97683.02;1680769;85;21475;-82
2021/06/19 07:58:55;;;;;;;5.00;3.70;;;;;;;23.76;56.92;97681.17;1680953;85;21105;-82
2021/06/19 08:01:21;;;;;;;4.28;3.52;;;;;;;23.71;55.81;97685.14;1680930;85;21133;-82
2021/06/19 08:03:48;;;;;;;3.52;3.20;;;;;;;23.72;57.70;97686.84;1680929;85;21045;-82
2021/06/19 08:06:15;;;;;;;3.77;3.15;;;;;;;23.76;56.30;97686.59;1680884;85;21053;-82
2021/06/19 08:08:41;;;;;;;3.92;3.45;;;;;;;23.74;56.10;97678.60;1681019;85;21044;-83
2021/06/19 08:11:08;;;;;;;3.62;3.30;;;;;;;23.73;56.25;97688.58;1680859;85;21021;-83
2021/06/19 08:13:34;;;;;;;4.17;3.50;;;;;;;23.76;56.61;97687.45;1681022;85;21084;-82
2021/06/19 08:16:04;;;;;;;3.85;3.30;;;;;;;23.82;56.62;97687.38;1669120;85;21568;-83
2021/06/19 08:18:29;;;;;;;3.85;3.22;;;;;;;23.85;56.53;97682.58;1669093;85;20987;-82
2021/06/19 08:20:56;;;;;;;4.08;3.42;;;;;;;23.88;55.88;97676.03;1669581;85;21011;-82
2021/06/19 08:23:23;;;;;;;5.53;3.27;;;;;;;23.93;55.90;97681.02;1682807;85;21463;-82
2021/06/19 08:25:49;;;;;;;3.72;3.42;;;;;;;23.99;55.60;97680.45;1678882;85;20997;-82
2021/06/19 08:28:16;;;;;;;3.90;3.50;;;;;;;24.05;55.38;97676.34;1682815;85;21049;-82
2021/06/19 08:30:43;;;;;;;5.30;3.65;;;;;;;24.05;54.56;97678.57;1661334;85;21024;-82
2021/06/19 08:33:09;;;;;;;4.42;3.75;;;;;;;24.07;55.45;97680.62;1682764;85;21025;-82
2021/06/19 08:35:35;;;;;;;3.67;3.37;;;;;;;24.13;54.84;97680.61;1682705;85;21051;-82
2021/06/19 08:38:02;;;;;;;4.40;3.87;;;;;;;24.20;55.81;97665.50;1682367;85;21001;-82
2021/06/19 08:40:31;;;;;;;5.00;3.67;;;;;;;24.21;54.82;97665.85;1682706;85;21048;-83
2021/06/19 08:42:57;;;;;;;4.55;3.65;;;;;;;24.26;55.63;97659.52;1682946;85;21419;-83
2021/06/19 08:45:25;;;;;;;3.98;3.67;;;;;;;24.39;55.05;97657.05;1686512;84;21009;-83
2021/06/19 08:47:53;;;;;;;3.85;3.50;;;;;;;24.46;54.09;97652.75;1693066;85;21079;-83
2021/06/19 08:50:19;;;;;;;6.00;3.40;;;;;;;24.51;54.69;97655.89;1693112;85;21020;-82
2021/06/19 08:52:47;;;;;;;5.75;4.00;;;;;;;24.64;54.71;97661.05;1730849;83;21406;-83
2021/06/19 08:55:15;;;;;;;5.80;3.45;;;;;;;24.73;53.91;97666.58;1731162;83;21084;-82
2021/06/19 08:57:43;;;;;;;4.00;3.58;;;;;;;24.73;54.22;97660.67;1695221;85;21076;-83
2021/06/19 09:00:14;;;;;;;3.92;3.45;;;;;;;24.82;54.21;97654.05;1731139;83;21035;-83
2021/06/19 09:02:41;;;;;;;4.87;3.58;;;;;;;24.88;53.08;97661.11;1731163;83;21604;-83
2021/06/19 09:05:13;;;;;;;3.85;3.45;;;;;;;24.91;53.72;97655.41;1695290;85;21113;-82
2021/06/19 09:07:49;;;;;;;3.70;3.40;;;;;;;24.99;53.25;97657.39;1731027;83;21045;-82
2021/06/19 09:10:33;;;;;;;4.35;3.67;;;;;;;25.04;53.62;97657.80;1731104;83;21032;-83
2021/06/19 09:13:15;;;;;;;4.50;3.60;;;;;;;25.09;52.92;97655.16;1694726;85;21073;-82
2021/06/19 09:15:49;;;;;;;8.38;3.60;;;;;;;25.09;52.62;97649.25;1731103;83;21017;-83
2021/06/19 09:18:23;;;;;;;4.65;3.80;;;;;;;25.09;50.45;97647.89;1731135;82;20985;-82
2021/06/19 09:20:55;;;;;;;;;;;;;;;25.03;50.18;97652.52;1697582;85;21016;-83
2021/06/19 09:23:41;;;;;;;4.10;3.80;;;;;;;25.02;50.46;97653.53;1731355;83;20355;-83
2021/06/19 09:26:15;;;;;;;5.20;3.80;;;;;;;24.96;50.57;97652.27;1731099;82;21048;-83
2021/06/19 09:28:59;;;;;;;4.30;3.75;;;;;;;24.97;50.55;97660.75;1731084;83;21402;-83
2021/06/19 09:31:51;;;;;;;7.40;3.92;;;;;;;24.95;50.13;97655.96;1695350;85;21116;-83
2021/06/19 09:34:26;;;;;;;6.70;3.90;;;;;;;24.89;50.96;97663.33;1731049;82;21028;-83
2021/06/19 09:37:03;;;;;;;4.37;3.95;;;;;;;24.88;51.29;97663.81;1731053;83;20973;-82
2021/06/19 09:39:32;;;;;;;5.55;3.98;;;;;;;24.83;51.65;97668.81;1669121;86;21004;-82
2021/06/19 09:42:04;;;;;;;4.60;4.20;;;;;;;24.76;51.95;97668.53;1695125;85;21032;-83
2021/06/19 09:44:46;;;;;;;5.35;4.45;;;;;;;24.73;51.99;97668.81;1731116;82;21017;-84
2021/06/19 09:47:20;;;;;;;6.42;4.30;;;;;;;24.68;52.23;97667.03;1723257;82;21065;-83
2021/06/19 09:49:48;;;;;;;4.03;3.67;;;;;;;24.59;52.15;97665.17;1735694;82;21079;-83
2021/06/19 09:52:19;;;;;;;4.47;4.00;;;;;;;24.51;52.17;97661.83;1723517;83;21013;-84
2021/06/19 09:54:58;;;;;;;4.35;3.70;;;;;;;24.39;52.56;97666.04;1722804;82;21084;-83
2021/06/19 09:57:43;;;;;;;5.72;4.08;;;;;;;24.30;52.49;97672.78;1723608;82;20973;-84
2021/06/19 10:00:15;;;;;;;6.12;4.22;;;;;;;24.25;53.27;97670.52;1723533;83;21005;-84
2021/06/19 10:02:43;;;;;;;4.35;3.95;;;;;;;24.21;53.58;97667.72;1723469;83;21020;-84
2021/06/19 10:05:11;;;;;;;5.03;4.33;;;;;;;24.18;53.43;97670.70;1718696;83;21013;-84
2021/06/19 10:07:39;;;;;;;5.60;4.15;;;;;;;24.10;53.81;97667.34;1723535;82;21001;-84
2021/06/19 10:10:10;;;;;;;3.92;3.45;;;;;;;24.07;53.95;97667.09;1723612;82;21045;-84
2021/06/19 10:12:39;;;;;;;4.20;3.80;;;;;;;24.00;53.83;97667.30;1723409;83;21501;-83
2021/06/19 10:15:12;;;;;;;4.62;4.17;;;;;;;23.95;53.92;97662.29;1723569;82;21560;-84
2021/06/19 10:17:43;;;;;;;6.62;4.50;;;;;;;23.94;54.11;97674.60;1723612;83;21000;-84
2021/06/19 10:20:13;;;;;;;5.65;5.15;;;;;;;23.96;54.52;97668.57;1723651;82;21462;-84
2021/06/19 10:22:43;;;;;;;5.22;4.72;;;;;;;24.00;54.67;97670.02;1723311;83;20969;-84
2021/06/19 10:25:13;;;;;;;7.85;4.50;;;;;;;24.03;54.96;97667.52;1723436;82;21047;-84
2021/06/19 10:27:47;;;;;;;5.37;4.45;;;;;;;24.08;54.67;97670.66;1723552;83;20986;-84
2021/06/19 10:30:17;;;;;;;4.55;3.72;;;;;;;24.08;54.20;97672.86;1723475;83;20973;-84
2021/06/19 10:32:50;;;;;;;4.28;3.87;;;;;;;24.12;53.75;97670.27;1723628;83;20997;-84
2021/06/19 10:35:22;;;;;;;4.08;3.67;;;;;;;24.20;53.49;97663.31;1723680;83;21044;-84
2021/06/19 10:37:51;;;;;;;4.22;3.83;;;;;;;24.29;53.15;97662.95;1723452;83;20969;-84
2021/06/19 10:40:28;;;;;;;4.40;4.00;;;;;;;24.45;53.25;97656.47;1723560;83;21005;-84
2021/06/19 10:43:21;;;;;;;3.98;3.62;;;;;;;24.62;52.91;97658.12;1723612;82;21040;-84
2021/06/19 10:45:48;;;;;;;4.47;4.08;;;;;;;24.79;52.07;97656.55;1723217;82;21036;-84
2021/06/19 10:48:18;;;;;;;4.47;3.52;;;;;;;24.96;52.41;97655.47;1722992;83;21538;-84
2021/06/19 10:50:49;;;;;;;4.35;3.60;;;;;;;25.16;51.99;97645.45;1721702;83;21096;-85
2021/06/19 10:53:20;;;;;;;4.62;4.00;;;;;;;25.36;51.59;97649.45;1723014;83;21024;-84
2021/06/19 10:55:56;;;;;;;4.12;3.72;;;;;;;25.62;51.24;97645.57;1723032;83;21052;-84
2021/06/19 10:58:33;;;;;;;4.10;3.60;;;;;;;26.02;50.51;97644.86;1723000;83;20938;-84
2021/06/19 11:01:06;;;;;;;7.47;3.83;;;;;;;26.36;50.12;97637.93;1723042;83;21052;-84
2021/06/19 11:03:47;;;;;;;4.00;3.58;;;;;;;26.76;47.32;97633.02;1723024;83;21470;-84
2021/06/19 11:06:27;;;;;;;4.12;3.40;;;;;;;27.32;46.01;97630.02;1722981;83;20962;-84
2021/06/19 11:09:19;;;;;;;4.50;3.52;;;;;;;27.64;46.72;97628.52;1722801;83;21013;-84
2021/06/19 11:12:04;;;;;;;3.77;3.30;;;;;;;28.14;45.46;97619.66;1723050;83;21009;-84
2021/06/19 11:14:46;;;;;;;3.75;3.00;;;;;;;28.64;43.66;97624.66;1722979;83;21462;-84
2021/06/19 11:17:36;;;;;;;5.28;3.10;;;;;;;28.83;43.27;97623.48;1722959;83;21373;-84
2021/06/19 11:20:11;;;;;;;4.10;3.22;;;;;;;28.96;39.96;97614.80;1722860;83;20997;-83
2021/06/19 11:22:43;;;;;;;3.42;3.20;;;;;;;29.32;42.09;97610.80;1722030;83;21410;-84
2021/06/19 11:25:37;;;;;;;3.70;3.40;;;;;;;29.79;41.41;97615.08;1720663;83;21006;-84
2021/06/19 11:28:22;;;;;;;3.17;2.87;;;;;;;30.06;39.85;97611.53;1722727;83;21016;-84
2021/06/19 11:30:57;;;;;;;4.25;3.10;;;;;;;30.29;39.24;97610.72;1723029;83;21032;-84
2021/06/19 11:33:27;;;;;;;4.00;3.20;;;;;;;30.47;37.89;97602.74;1722850;83;21080;-84
2021/06/19 11:36:05;;;;;;;3.42;3.12;;;;;;;30.54;37.70;97601.83;1723147;83;20969;-83
2021/06/19 11:38:51;;;;;;;3.10;2.80;;;;;;;30.78;37.37;97604.55;1723069;83;21462;-84
2021/06/19 11:41:23;;;;;;;3.33;2.98;;;;;;;30.89;35.04;97596.42;1723151;83;20962;-83
2021/06/19 11:43:50;;;;;;;5.67;3.58;;;;;;;31.14;35.87;97593.44;1723018;83;20965;-84
2021/06/19 11:46:23;;;;;;;3.15;2.85;;;;;;;31.42;36.10;97590.08;1722891;82;21017;-84
2021/06/19 11:48:53;;;;;;;;;;;;;;;31.63;34.52;97574.22;1725434;83;21073;-84